createdAt,value
2023-01-20T00:01:40.519Z,-2.08
2023-01-20T00:04:07.314Z,-2.12
2023-01-20T00:06:34.708Z,-2.20
2023-01-20T00:09:03.939Z,-2.13
2023-01-20T00:11:31.455Z,-2.18
2023-01-20T00:14:00.277Z,-1.93
2023-01-20T00:16:28.417Z,-1.96
2023-01-20T00:18:55.540Z,-1.90
2023-01-20T00:21:22.918Z,-1.83
2023-01-20T00:23:50.160Z,-2.12
2023-01-20T00:26:20.013Z,-1.99
2023-01-20T00:28:48.069Z,-1.88
2023-01-20T00:31:27.154Z,-1.93
2023-01-20T00:33:57.032Z,-2.10
2023-01-20T00:36:25.863Z,-1.94
2023-01-20T00:38:52.896Z,-1.92
2023-01-20T00:41:20.297Z,-1.96
2023-01-20T00:43:47.352Z,-2.08
2023-01-20T00:46:15.027Z,-1.96
2023-01-20T00:48:42.233Z,-2.06
2023-01-20T00:51:09.809Z,-2.12
2023-01-20T00:53:37.527Z,-2.22
2023-01-20T00:56:04.921Z,-2.05
2023-01-20T00:58:32.201Z,-2.06
2023-01-20T01:00:59.736Z,-2.17
2023-01-20T01:03:27.432Z,-2.32
2023-01-20T01:05:54.300Z,-2.02
2023-01-20T01:08:21.736Z,-2.13
2023-01-20T01:10:48.586Z,-2.19
2023-01-20T01:13:15.488Z,-2.28
2023-01-20T01:15:48.754Z,-2.23
2023-01-20T01:18:15.887Z,-1.99
2023-01-20T01:20:42.767Z,-2.19
2023-01-20T01:23:09.647Z,-2.19
2023-01-20T01:25:37.936Z,-2.22
2023-01-20T01:28:05.167Z,-2.27
2023-01-20T01:30:32.280Z,-2.31
2023-01-20T01:32:59.198Z,-2.25
2023-01-20T01:35:26.030Z,-2.14
2023-01-20T01:37:53.004Z,-2.34
2023-01-20T01:40:19.895Z,-2.10
2023-01-20T01:42:46.920Z,-2.03
2023-01-20T01:45:18.392Z,-1.94
2023-01-20T01:47:50.726Z,-2.26
2023-01-20T01:50:27.947Z,-2.06
2023-01-20T01:52:57.026Z,-2.09
2023-01-20T01:55:29.279Z,-2.34
2023-01-20T01:57:59.012Z,-2.38
2023-01-20T02:00:26.344Z,-2.45
2023-01-20T02:02:55.201Z,-2.45
2023-01-20T02:05:24.224Z,-2.50
2023-01-20T02:07:52.216Z,-2.79
2023-01-20T02:10:19.258Z,-2.63
2023-01-20T02:12:48.994Z,-2.62
2023-01-20T02:15:17.711Z,-2.66
2023-01-20T02:17:53.335Z,-2.65
2023-01-20T02:20:36.333Z,-2.78
2023-01-20T02:23:40.499Z,-2.42
2023-01-20T02:26:32.080Z,-2.59
2023-01-20T02:29:25.102Z,-2.64
2023-01-20T02:32:10.243Z,-2.46
2023-01-20T02:35:09.897Z,-2.50
2023-01-20T02:37:54.374Z,-2.52
2023-01-20T02:40:44.340Z,-2.67
2023-01-20T02:43:17.248Z,-2.83
2023-01-20T02:45:53.355Z,-2.82
2023-01-20T02:48:41.609Z,-2.85
2023-01-20T02:51:43.094Z,-2.72
2023-01-20T02:54:15.205Z,-2.51
2023-01-20T02:56:43.052Z,-2.85
2023-01-20T02:59:17.284Z,-2.61
2023-01-20T03:01:50.662Z,-2.65
2023-01-20T03:04:22.982Z,-2.75
2023-01-20T03:06:54.542Z,-2.74
2023-01-20T03:09:28.499Z,-2.82
2023-01-20T03:12:01.014Z,-2.85
2023-01-20T03:14:28.353Z,-2.71
2023-01-20T03:16:55.473Z,-2.64
2023-01-20T03:19:22.522Z,-2.84
2023-01-20T03:21:49.525Z,-2.89
2023-01-20T03:24:16.507Z,-2.77
2023-01-20T03:26:43.470Z,-2.98
2023-01-20T03:29:11.188Z,-2.90
2023-01-20T03:31:50.803Z,-2.88
2023-01-20T03:34:22.034Z,-2.89
2023-01-20T03:36:50.371Z,-3.04
2023-01-20T03:39:18.207Z,-3.20
2023-01-20T03:42:13.756Z,-3.24
2023-01-20T03:44:52.304Z,-3.17
2023-01-20T03:47:41.171Z,-3.15
2023-01-20T03:50:39.567Z,-3.20
2023-01-20T03:53:09.594Z,-3.25
2023-01-20T03:55:56.746Z,-3.26
2023-01-20T03:58:31.412Z,-3.28
2023-01-20T04:01:02.131Z,-3.21
2023-01-20T04:03:48.800Z,-3.25
2023-01-20T04:06:18.007Z,-3.22
2023-01-20T04:08:51.994Z,-3.44
2023-01-20T04:11:19.453Z,-3.22
2023-01-20T04:13:46.310Z,-3.29
2023-01-20T04:16:17.866Z,-3.36
2023-01-20T04:18:49.000Z,-3.50
2023-01-20T04:21:21.729Z,-3.24
2023-01-20T04:23:57.960Z,-3.28
2023-01-20T04:26:24.896Z,-3.24
2023-01-20T04:28:51.755Z,-3.38
2023-01-20T04:31:30.005Z,-3.55
2023-01-20T04:33:57.669Z,-3.28
2023-01-20T04:36:24.494Z,-3.40
2023-01-20T04:38:51.623Z,-3.34
2023-01-20T04:41:18.471Z,-3.34
2023-01-20T04:43:46.369Z,-3.47
2023-01-20T04:46:15.094Z,-3.51
2023-01-20T04:48:44.223Z,-3.46
2023-01-20T04:51:11.086Z,-3.45
2023-01-20T04:53:38.282Z,-3.25
2023-01-20T04:56:10.103Z,-3.29
2023-01-20T04:58:37.139Z,-3.17
2023-01-20T05:01:03.993Z,-3.25
2023-01-20T05:03:30.974Z,-3.15
2023-01-20T05:05:57.897Z,-3.41
2023-01-20T05:08:24.947Z,-3.33
2023-01-20T05:10:51.941Z,-3.52
2023-01-20T05:13:18.835Z,-3.58
2023-01-20T05:15:45.698Z,-3.49
2023-01-20T05:18:12.706Z,-3.61
2023-01-20T05:20:39.853Z,-3.58
2023-01-20T05:23:06.744Z,-3.58
2023-01-20T05:25:33.630Z,-3.48
2023-01-20T05:28:00.593Z,-3.55
2023-01-20T05:30:27.889Z,-3.38
2023-01-20T05:32:54.923Z,-3.71
2023-01-20T05:35:22.093Z,-3.64
2023-01-20T05:37:52.404Z,-3.71
2023-01-20T05:40:19.284Z,-3.71
2023-01-20T05:42:46.270Z,-3.57
2023-01-20T05:45:13.520Z,-3.67
2023-01-20T05:47:40.591Z,-3.61
2023-01-20T05:50:08.353Z,-3.65
2023-01-20T05:52:35.153Z,-3.69
2023-01-20T05:55:02.098Z,-3.66
2023-01-20T05:57:28.983Z,-3.59
2023-01-20T05:59:55.811Z,-3.77
2023-01-20T06:02:22.746Z,-3.79
2023-01-20T06:04:49.622Z,-3.73
2023-01-20T06:07:16.560Z,-3.71
2023-01-20T06:09:43.542Z,-3.74
2023-01-20T06:12:10.425Z,-3.71
2023-01-20T06:14:37.580Z,-3.76
2023-01-20T06:17:04.610Z,-3.87
2023-01-20T06:19:31.500Z,-3.63
2023-01-20T06:21:58.466Z,-3.87
2023-01-20T06:24:25.416Z,-3.65
2023-01-20T06:26:52.281Z,-3.64
2023-01-20T06:29:19.226Z,-3.66
2023-01-20T06:31:46.567Z,-3.51
2023-01-20T06:34:13.487Z,-3.62
2023-01-20T06:36:40.484Z,-3.75
2023-01-20T06:39:07.593Z,-3.82
2023-01-20T06:41:34.550Z,-3.59
2023-01-20T06:44:01.401Z,-3.60
2023-01-20T06:46:28.397Z,-3.47
2023-01-20T06:48:55.285Z,-3.29
2023-01-20T06:51:22.152Z,-3.34
2023-01-20T06:53:49.174Z,-3.45
2023-01-20T06:56:16.254Z,-3.38
2023-01-20T06:58:43.293Z,-3.20
2023-01-20T07:01:22.806Z,-3.53
2023-01-20T07:03:50.083Z,-3.35
2023-01-20T07:06:30.383Z,-3.16
2023-01-20T07:08:58.947Z,-3.27
2023-01-20T07:11:26.875Z,-3.27
2023-01-20T07:13:53.870Z,-2.98
2023-01-20T07:16:20.859Z,-3.02
2023-01-20T07:18:49.896Z,-3.01
2023-01-20T07:21:17.701Z,-3.17
2023-01-20T07:23:45.180Z,-3.04
2023-01-20T07:26:15.390Z,-2.91
2023-01-20T07:28:42.535Z,-2.90
2023-01-20T07:31:21.571Z,-2.74
2023-01-20T07:33:49.680Z,-2.81
2023-01-20T07:36:17.010Z,-2.49
2023-01-20T07:38:47.505Z,-2.44
2023-01-20T07:41:14.450Z,-2.47
2023-01-20T07:43:42.234Z,-2.37
2023-01-20T07:46:10.429Z,-2.44
2023-01-20T07:48:38.645Z,-2.35
2023-01-20T07:51:08.425Z,-2.45
2023-01-20T07:53:37.650Z,-2.73
2023-01-20T07:56:12.636Z,-2.71
2023-01-20T07:58:39.714Z,-2.28
2023-01-20T08:01:15.597Z,-2.26
2023-01-20T08:03:43.539Z,-2.09
2023-01-20T08:06:13.341Z,-2.28
2023-01-20T08:08:40.793Z,-2.00
2023-01-20T08:11:08.501Z,-2.14
2023-01-20T08:13:35.526Z,-2.07
2023-01-20T08:16:05.187Z,-2.04
2023-01-20T08:18:33.164Z,-2.10
2023-01-20T08:21:00.048Z,-1.98
2023-01-20T08:23:27.358Z,-1.96
2023-01-20T08:26:02.199Z,-1.79
2023-01-20T08:28:30.457Z,-1.87
2023-01-20T08:31:12.553Z,-1.91
2023-01-20T08:33:41.323Z,-1.82
2023-01-20T08:36:11.472Z,-1.53
2023-01-20T08:38:38.517Z,-1.51
2023-01-20T08:41:23.732Z,-1.63
2023-01-20T08:43:51.805Z,-1.60
2023-01-20T08:46:21.226Z,-1.48
2023-01-20T08:48:49.975Z,-1.89
2023-01-20T08:51:20.998Z,-1.88
2023-01-20T08:53:48.230Z,-1.62
2023-01-20T08:56:16.192Z,-1.73
2023-01-20T08:58:43.190Z,-1.61
2023-01-20T09:01:15.734Z,-1.59
2023-01-20T09:03:49.419Z,-1.33
2023-01-20T09:06:26.544Z,-1.51
2023-01-20T09:08:54.272Z,-1.88
2023-01-20T09:11:22.913Z,-1.49
2023-01-20T09:13:49.820Z,-1.53
2023-01-20T09:16:19.837Z,-1.50
2023-01-20T09:18:46.820Z,-1.78
2023-01-20T09:21:13.725Z,-1.62
2023-01-20T09:23:41.344Z,-1.59
2023-01-20T09:26:09.621Z,-1.80
2023-01-20T09:28:36.713Z,-1.72
2023-01-20T09:31:09.096Z,-1.56
2023-01-20T09:33:38.494Z,-1.74
2023-01-20T09:36:07.928Z,-1.58
2023-01-20T09:38:35.235Z,-1.35
2023-01-20T09:41:27.980Z,-1.06
2023-01-20T09:44:56.359Z,-1.26
2023-01-20T09:47:31.849Z,-1.32
2023-01-20T09:50:17.337Z,-1.54
2023-01-20T09:52:45.115Z,-1.28
2023-01-20T09:55:19.825Z,-1.17
2023-01-20T09:57:54.383Z,-1.27
2023-01-20T10:00:26.940Z,-0.97
2023-01-20T10:03:05.683Z,-1.28
2023-01-20T10:05:39.724Z,-0.94
2023-01-20T10:08:13.698Z,-1.07
2023-01-20T10:10:50.791Z,-1.05
2023-01-20T10:13:31.395Z,-1.05
2023-01-20T10:16:05.137Z,-1.13
2023-01-20T10:18:54.028Z,-1.06
2023-01-20T10:21:31.652Z,-1.11
2023-01-20T10:24:29.638Z,-1.01
2023-01-20T10:27:03.098Z,-1.04
2023-01-20T10:29:38.004Z,-1.10
2023-01-20T10:32:33.849Z,-0.98
2023-01-20T10:35:23.426Z,-1.12
2023-01-20T10:37:52.805Z,-1.31
2023-01-20T10:40:44.682Z,-1.26
2023-01-20T10:43:14.971Z,-1.13
2023-01-20T10:46:01.554Z,-1.23
2023-01-20T10:49:02.730Z,-1.26
2023-01-20T10:51:46.053Z,-1.43
2023-01-20T10:54:37.443Z,-1.39
2023-01-20T10:57:10.537Z,-1.39
2023-01-20T10:59:50.322Z,-1.34
2023-01-20T11:02:29.462Z,-1.33
2023-01-20T11:05:15.375Z,-1.64
2023-01-20T11:07:44.587Z,-1.81
2023-01-20T11:10:32.624Z,-1.49
2023-01-20T11:13:01.923Z,-1.51
2023-01-20T11:15:31.431Z,-1.68
2023-01-20T11:18:16.641Z,-1.54
2023-01-20T11:20:48.269Z,-1.46
2023-01-20T11:23:26.740Z,-1.66
2023-01-20T11:26:00.000Z,-1.28
2023-01-20T11:28:29.098Z,-1.60
2023-01-20T11:30:57.452Z,-1.52
2023-01-20T11:33:27.639Z,-1.38
2023-01-20T11:36:17.595Z,-1.32
2023-01-20T11:38:49.443Z,-1.42
2023-01-20T11:41:27.816Z,-1.45
2023-01-20T11:43:59.678Z,-1.54
2023-01-20T11:46:26.538Z,-1.42
2023-01-20T11:49:22.106Z,-1.46
2023-01-20T11:51:57.230Z,-1.45
2023-01-20T11:54:26.809Z,-1.54
2023-01-20T11:56:59.281Z,-1.29
2023-01-20T11:59:32.066Z,-1.40
2023-01-20T12:02:05.160Z,-1.36
2023-01-20T12:04:50.694Z,-1.14
2023-01-20T12:07:35.275Z,-1.20
2023-01-20T12:10:14.696Z,-1.39
2023-01-20T12:12:44.678Z,-1.29
2023-01-20T12:15:27.956Z,-1.29
2023-01-20T12:18:02.807Z,-1.13
2023-01-20T12:20:56.155Z,-1.46
2023-01-20T12:23:23.085Z,-1.32
2023-01-20T12:26:00.725Z,-1.18
2023-01-20T12:28:42.601Z,-1.32
2023-01-20T12:31:11.314Z,-1.30
2023-01-20T12:33:44.343Z,-1.40
2023-01-20T12:36:43.533Z,-1.38
2023-01-20T12:39:52.957Z,-1.27
2023-01-20T12:42:44.175Z,-1.55
2023-01-20T12:45:39.683Z,-1.40
2023-01-20T12:48:39.073Z,-1.33
2023-01-20T12:51:26.985Z,-1.46
2023-01-20T12:54:47.457Z,-1.44
2023-01-20T12:57:45.124Z,-1.43
2023-01-20T13:00:27.627Z,-1.58
2023-01-20T13:03:31.686Z,-1.49
2023-01-20T13:06:20.649Z,-1.57
2023-01-20T13:08:47.510Z,-1.77
2023-01-20T13:11:51.387Z,-2.05
2023-01-20T13:14:25.024Z,-1.93
2023-01-20T13:17:05.796Z,-1.89
2023-01-20T13:19:37.106Z,-1.98
2023-01-20T13:22:19.941Z,-2.00
2023-01-20T13:24:53.927Z,-2.00
2023-01-20T13:27:30.444Z,-1.97
2023-01-20T13:29:59.761Z,-2.01
2023-01-20T13:32:45.859Z,-2.06
2023-01-20T13:35:18.651Z,-2.07
2023-01-20T13:38:03.859Z,-2.09
2023-01-20T13:40:36.655Z,-2.05
2023-01-20T13:43:23.866Z,-2.15
2023-01-20T13:46:13.836Z,-2.30
2023-01-20T13:49:18.288Z,-2.24
2023-01-20T13:51:46.434Z,-2.29
2023-01-20T13:54:25.302Z,-2.21
2023-01-20T13:56:53.075Z,-2.17
2023-01-20T13:59:19.987Z,-2.10
2023-01-20T14:01:46.958Z,-2.12
2023-01-20T14:04:19.090Z,-2.19
2023-01-20T14:06:51.244Z,-2.31
2023-01-20T14:09:26.278Z,-2.42
2023-01-20T14:11:57.698Z,-2.41
2023-01-20T14:14:27.007Z,-2.28
2023-01-20T14:16:56.378Z,-2.28
2023-01-20T14:19:32.103Z,-2.29
2023-01-20T14:22:04.743Z,-2.41
2023-01-20T14:24:43.344Z,-2.36
2023-01-20T14:27:23.549Z,-2.43
2023-01-20T14:29:52.879Z,-2.48
2023-01-20T14:32:24.938Z,-2.27
2023-01-20T14:34:53.345Z,-2.29
2023-01-20T14:37:30.392Z,-2.42
2023-01-20T14:40:00.525Z,-2.57
2023-01-20T14:42:29.159Z,-2.41
2023-01-20T14:44:57.954Z,-2.42
2023-01-20T14:47:26.940Z,-2.32
2023-01-20T14:49:54.808Z,-2.51
2023-01-20T14:52:26.947Z,-2.38
2023-01-20T14:54:54.145Z,-2.45
2023-01-20T14:57:24.453Z,-2.57
2023-01-20T15:00:13.217Z,-2.66
2023-01-20T15:02:43.356Z,-2.70
2023-01-20T15:05:31.982Z,-2.71
2023-01-20T15:08:19.010Z,-2.87
2023-01-20T15:10:46.063Z,-2.92
2023-01-20T15:13:28.792Z,-2.80
2023-01-20T15:16:24.921Z,-2.71
2023-01-20T15:19:13.707Z,-2.78
2023-01-20T15:21:43.626Z,-2.88
2023-01-20T15:24:15.478Z,-2.80
2023-01-20T15:26:43.037Z,-2.95
2023-01-20T15:29:20.585Z,-2.85
2023-01-20T15:31:48.248Z,-3.05
2023-01-20T15:34:15.221Z,-2.82
2023-01-20T15:36:44.275Z,-2.85
2023-01-20T15:39:16.041Z,-2.97
2023-01-20T15:41:43.477Z,-2.86
2023-01-20T15:44:10.461Z,-3.01
2023-01-20T15:46:37.454Z,-3.01
2023-01-20T15:49:04.346Z,-3.21
2023-01-20T15:51:31.310Z,-3.26
2023-01-20T15:53:58.367Z,-3.10
2023-01-20T15:56:30.993Z,-3.13
2023-01-20T15:58:58.218Z,-2.90
2023-01-20T16:01:27.302Z,-2.92
2023-01-20T16:03:55.859Z,-2.93
2023-01-20T16:06:33.496Z,-3.13
2023-01-20T16:09:02.525Z,-3.09
2023-01-20T16:11:29.526Z,-2.98
2023-01-20T16:13:56.670Z,-3.14
2023-01-20T16:16:24.241Z,-3.24
2023-01-20T16:18:51.325Z,-3.37
2023-01-20T16:21:19.477Z,-3.21
2023-01-20T16:23:47.730Z,-3.34
2023-01-20T16:26:20.838Z,-3.36
2023-01-20T16:28:48.643Z,-3.31
2023-01-20T16:31:15.934Z,-3.30
2023-01-20T16:33:42.987Z,-3.24
2023-01-20T16:36:15.218Z,-3.25
2023-01-20T16:38:43.177Z,-3.28
2023-01-20T16:41:27.569Z,-3.33
2023-01-20T16:43:55.931Z,-3.05
2023-01-20T16:46:27.382Z,-3.11
2023-01-20T16:48:55.219Z,-3.05
2023-01-20T16:51:23.412Z,-3.10
2023-01-20T16:53:50.323Z,-3.32
2023-01-20T16:56:22.814Z,-3.42
2023-01-20T16:58:51.760Z,-3.40
2023-01-20T17:01:20.508Z,-3.44
2023-01-20T17:03:48.483Z,-3.36
2023-01-20T17:06:20.418Z,-3.31
2023-01-20T17:08:52.930Z,-3.57
2023-01-20T17:11:35.196Z,-3.49
2023-01-20T17:14:05.651Z,-3.47
2023-01-20T17:16:33.272Z,-3.56
2023-01-20T17:19:01.616Z,-3.44
2023-01-20T17:21:30.919Z,-3.49
2023-01-20T17:24:01.288Z,-3.37
2023-01-20T17:26:28.868Z,-3.59
2023-01-20T17:28:57.459Z,-3.38
2023-01-20T17:31:24.419Z,-3.55
2023-01-20T17:33:51.651Z,-3.54
2023-01-20T17:36:18.739Z,-3.58
2023-01-20T17:38:46.445Z,-3.36
2023-01-20T17:41:14.909Z,-3.77
2023-01-20T17:43:45.769Z,-3.49
2023-01-20T17:46:18.189Z,-3.37
2023-01-20T17:48:46.789Z,-3.55
2023-01-20T17:51:19.479Z,-3.69
2023-01-20T17:53:46.912Z,-3.81
2023-01-20T17:56:15.364Z,-3.75
2023-01-20T17:58:44.473Z,-3.55
2023-01-20T18:01:18.266Z,-3.75
2023-01-20T18:03:46.444Z,-3.64
2023-01-20T18:06:14.786Z,-3.76
2023-01-20T18:08:42.473Z,-3.64
2023-01-20T18:11:12.359Z,-3.65
2023-01-20T18:13:39.288Z,-3.71
2023-01-20T18:16:08.315Z,-3.71
2023-01-20T18:18:35.291Z,-3.94
2023-01-20T18:21:16.794Z,-3.77
2023-01-20T18:23:44.879Z,-3.88
2023-01-20T18:26:13.641Z,-3.80
2023-01-20T18:28:41.917Z,-4.00
2023-01-20T18:31:17.511Z,-4.13
2023-01-20T18:33:48.691Z,-4.35
2023-01-20T18:36:30.344Z,-4.05
2023-01-20T18:38:59.656Z,-3.99
2023-01-20T18:41:28.766Z,-4.01
2023-01-20T18:43:56.075Z,-3.96
2023-01-20T18:46:23.592Z,-3.94
2023-01-20T18:48:50.728Z,-3.92
2023-01-20T18:51:20.266Z,-3.89
2023-01-20T18:53:55.492Z,-3.88
2023-01-20T18:56:23.142Z,-3.94
2023-01-20T18:58:51.438Z,-3.78
2023-01-20T19:01:23.698Z,-3.95
2023-01-20T19:03:51.408Z,-3.99
2023-01-20T19:06:20.991Z,-4.00
2023-01-20T19:08:48.454Z,-3.99
2023-01-20T19:11:21.603Z,-4.10
2023-01-20T19:13:50.565Z,-4.24
2023-01-20T19:16:21.619Z,-4.03
2023-01-20T19:18:53.886Z,-4.18
2023-01-20T19:21:22.262Z,-4.18
2023-01-20T19:23:53.791Z,-4.46
2023-01-20T19:26:22.638Z,-4.44
2023-01-20T19:28:57.353Z,-4.42
2023-01-20T19:31:24.619Z,-4.45
2023-01-20T19:33:52.063Z,-4.67
2023-01-20T19:36:19.562Z,-4.52
2023-01-20T19:38:47.029Z,-4.67
2023-01-20T19:41:17.084Z,-4.40
2023-01-20T19:43:45.175Z,-4.73
2023-01-20T19:46:15.362Z,-4.64
2023-01-20T19:48:42.640Z,-4.44
2023-01-20T19:51:12.278Z,-4.46
2023-01-20T19:53:40.138Z,-4.44
2023-01-20T19:56:09.683Z,-4.35
2023-01-20T19:58:37.271Z,-4.41
2023-01-20T20:01:09.435Z,-4.45
2023-01-20T20:03:36.690Z,-4.50
2023-01-20T20:06:06.574Z,-4.02
2023-01-20T20:08:34.264Z,-4.35
2023-01-20T20:11:01.176Z,-4.44
2023-01-20T20:13:28.205Z,-4.52
2023-01-20T20:16:02.805Z,-4.43
2023-01-20T20:18:29.835Z,-4.40
2023-01-20T20:20:56.883Z,-4.36
2023-01-20T20:23:24.404Z,-4.42
2023-01-20T20:25:52.705Z,-4.56
2023-01-20T20:28:19.689Z,-4.47
2023-01-20T20:30:46.687Z,-4.58
2023-01-20T20:33:13.734Z,-4.69
2023-01-20T20:35:40.623Z,-4.58
2023-01-20T20:38:07.564Z,-4.70
2023-01-20T20:40:34.775Z,-4.65
2023-01-20T20:43:01.716Z,-4.50
2023-01-20T20:45:28.554Z,-4.63
2023-01-20T20:47:57.343Z,-4.46
2023-01-20T20:50:24.200Z,-4.45
2023-01-20T20:52:51.225Z,-4.45
2023-01-20T20:55:18.108Z,-4.33
2023-01-20T20:57:45.186Z,-4.39
2023-01-20T21:00:12.645Z,-4.37
2023-01-20T21:02:39.708Z,-4.25
2023-01-20T21:05:07.405Z,-4.32
2023-01-20T21:07:34.390Z,-4.31
2023-01-20T21:10:01.243Z,-4.37
2023-01-20T21:12:28.139Z,-4.79
2023-01-20T21:14:55.093Z,-4.67
2023-01-20T21:17:22.198Z,-4.53
2023-01-20T21:19:51.438Z,-4.39
2023-01-20T21:22:19.216Z,-4.21
2023-01-20T21:24:46.118Z,-4.30
2023-01-20T21:27:13.051Z,-4.36
2023-01-20T21:29:39.953Z,-4.24
2023-01-20T21:32:06.904Z,-4.45
2023-01-20T21:34:33.769Z,-4.50
2023-01-20T21:37:00.888Z,-4.37
2023-01-20T21:39:27.737Z,-4.39
2023-01-20T21:41:54.644Z,-4.89
2023-01-20T21:44:21.532Z,-4.76
2023-01-20T21:46:48.552Z,-4.71
2023-01-20T21:49:15.538Z,-4.88
2023-01-20T21:51:42.499Z,-4.56
2023-01-20T21:54:09.348Z,-4.70
2023-01-20T21:56:36.335Z,-4.53
2023-01-20T21:59:03.407Z,-4.77
2023-01-20T22:01:30.255Z,-4.80
2023-01-20T22:03:57.092Z,-4.94
2023-01-20T22:06:24.052Z,-4.82
2023-01-20T22:08:50.856Z,-4.74
2023-01-20T22:11:17.771Z,-4.76
2023-01-20T22:13:44.672Z,-4.85
2023-01-20T22:16:11.815Z,-4.85
2023-01-20T22:18:38.643Z,-4.92
2023-01-20T22:21:07.203Z,-5.20
2023-01-20T22:23:35.348Z,-5.28
2023-01-20T22:26:02.979Z,-5.24
2023-01-20T22:28:30.200Z,-5.28
2023-01-20T22:31:05.633Z,-5.15
2023-01-20T22:33:32.718Z,-5.02
2023-01-20T22:35:59.670Z,-5.24
2023-01-20T22:38:26.639Z,-5.08
2023-01-20T22:40:53.496Z,-5.19
2023-01-20T22:43:20.688Z,-5.19
2023-01-20T22:45:48.510Z,-5.16
2023-01-20T22:48:15.586Z,-4.92
2023-01-20T22:50:42.436Z,-4.88
2023-01-20T22:53:09.474Z,-4.94
2023-01-20T22:55:36.338Z,-5.13
2023-01-20T22:58:03.267Z,-5.00
2023-01-20T23:00:30.150Z,-5.02
2023-01-20T23:02:57.211Z,-5.40
2023-01-20T23:05:24.043Z,-5.09
2023-01-20T23:07:50.926Z,-5.30
2023-01-20T23:10:18.187Z,-5.26
2023-01-20T23:12:45.325Z,-5.31
2023-01-20T23:15:12.179Z,-4.99
2023-01-20T23:17:39.143Z,-5.05
2023-01-20T23:20:06.522Z,-5.23
2023-01-20T23:22:33.443Z,-5.44
2023-01-20T23:25:00.435Z,-5.34
2023-01-20T23:27:27.342Z,-5.50
2023-01-20T23:29:54.430Z,-5.28
2023-01-20T23:32:21.464Z,-5.54
2023-01-20T23:34:48.295Z,-5.79
2023-01-20T23:37:16.570Z,-5.85
2023-01-20T23:39:43.403Z,-5.81
2023-01-20T23:42:10.327Z,-6.00
2023-01-20T23:44:37.174Z,-5.73
2023-01-20T23:47:04.159Z,-5.92
2023-01-20T23:49:31.024Z,-5.73
2023-01-20T23:51:57.986Z,-5.76
2023-01-20T23:54:24.852Z,-5.78
2023-01-20T23:56:52.010Z,-5.88
2023-01-20T23:59:18.951Z,-5.78
